Darstellungsparameter: Aktuell verwendete Einstellungen:
Skalierung der Graphiken ... ?
xyx+y,   Skalierungsfaktor:      Skalierung: Modus: x, Faktor: 1
Darstellungszeitraum ... ?
Vom - - bis: - -   Zeitraum: 01.12.2011 - 06.12.2011
Min/Max/Avg-Anzeige ... ?
Zeige MMA aktuell
Zeige MMA Monat
Zeige MMA alles
Zeige --A aktuell
Zeige --A Monat
Zeige --A alles
Keine MMA-Anzeige
MMA:
Keine MMA-Graphiken
MMA-Basis: 01.12.2011 - 06.12.2011
Quicknavigation für Darstellung... ?
Tage:      1T, 2T, 3T, 5T -1T -2T -3T -5T +1T +2T +3T +5T
Wochen: 1W, 2W, 3W -1W -2W -3W +1W +2W +3W
Monate: 1M, 3M, 6M -1M -3M -6M +1M +3M +6M
Jahre:    1J, 3J, 5J, 10J -1J -3J -5J -10J +1J +3J +5J +10J
Nutze für die Darstellung ... ?
Originaldaten oder Mittelwerte auf ...
Stundenbasis Tagesbasis Wochenbasis
Monatsbasis Jahresbasis      Datenbasis: Original-Daten
Darstellen als:
Statistik (Auto) Statistik J:M      Darstellung:
Zur Graphik,    zurück zur Übersicht aller Sensoren.
 
Tabellarische Datenbersicht: ?
 
Sensor: Nr:Datum:Temp:Abs-Feuchte:Windchill:Wind:
Aussen-T/F 1 01-12-2011 00:11:01 -1.7 C 3.96 g/m*3 -1.7 C 0 km/h
2 01-12-2011 00:23:01 -1.8 C 3.93 g/m*3 -1.8 C 0 km/h
3 01-12-2011 00:35:02 -1.7 C 3.96 g/m*3 -1.7 C 0 km/h
4 01-12-2011 00:47:01 -1.7 C 3.96 g/m*3 -1.7 C 0 km/h
5 01-12-2011 00:59:01 -1.4 C 4.09 g/m*3 -1.4 C 0 km/h
6 01-12-2011 01:11:02 -1.8 C 3.93 g/m*3 -1.8 C 0 km/h
7 01-12-2011 01:23:01 -1.2 C 4.15 g/m*3 -1.2 C 0 km/h
8 01-12-2011 01:35:01 -1.6 C 4.03 g/m*3 -1.6 C 0 km/h
9 01-12-2011 01:47:01 -1.8 C 3.98 g/m*3 -1.8 C 0 km/h
10 01-12-2011 01:59:01 -2 C 3.92 g/m*3 -2 C 0 km/h
11 01-12-2011 02:11:02 -2 C 3.92 g/m*3 -2 C 0 km/h
12 01-12-2011 02:23:01 -2.1 C 3.89 g/m*3 -2.1 C 0 km/h
13 01-12-2011 02:35:01 -2 C 3.92 g/m*3 -2 C 0 km/h
14 01-12-2011 02:48:04 -2 C 3.92 g/m*3 -2 C 0 km/h
15 01-12-2011 03:00:04 -1.6 C 4.03 g/m*3 -1.6 C 0 km/h
16 01-12-2011 03:12:05 -1.4 C 4.09 g/m*3 -1.4 C 0 km/h
17 01-12-2011 03:24:05 -1.7 C 4 g/m*3 -1.7 C 0 km/h
18 01-12-2011 03:36:02 -1.4 C 4.09 g/m*3 -1.4 C 0 km/h
19 01-12-2011 03:48:02 -0.9 C 4.23 g/m*3 -0.9 C 0 km/h
20 01-12-2011 04:00:02 -0.8 C 4.31 g/m*3 -0.8 C 0 km/h
21 01-12-2011 04:12:02 -0.3 C 4.46 g/m*3 -0.3 C 0 km/h
22 01-12-2011 04:24:02 -0.4 C 4.43 g/m*3 -0.4 C 0 km/h
23 01-12-2011 04:36:02 -0.5 C 4.4 g/m*3 -0.5 C 0 km/h
24 01-12-2011 04:48:02 -0.4 C 4.43 g/m*3 -0.4 C 0 km/h
25 01-12-2011 05:00:02 -0.2 C 4.49 g/m*3 -0.2 C 0 km/h
Sensor: Nr:Datum:Temp:Abs-Feuchte:Windchill:Wind:
Aussen-T/F 26 01-12-2011 05:12:02 0 C 4.55 g/m*3 0 C 0 km/h
27 01-12-2011 05:24:03 -0.2 C 4.49 g/m*3 -0.2 C 0 km/h
28 01-12-2011 05:36:02 0.4 C 4.68 g/m*3 0.4 C 0 km/h
29 01-12-2011 05:48:01 0.1 C 4.59 g/m*3 0.1 C 0 km/h
30 01-12-2011 06:00:01 0.1 C 4.59 g/m*3 0.1 C 0 km/h
31 01-12-2011 06:12:02 0.6 C 4.75 g/m*3 0.6 C 0 km/h
32 01-12-2011 06:24:01 0.7 C 4.78 g/m*3 0.7 C 0 km/h
33 01-12-2011 06:36:01 1.4 C 5.01 g/m*3 1.4 C 0 km/h
34 01-12-2011 06:48:01 1.9 C 5.19 g/m*3 1.9 C 0 km/h
35 01-12-2011 07:00:01 1.9 C 5.19 g/m*3 1.9 C 0 km/h
36 01-12-2011 07:12:01 2.3 C 5.33 g/m*3 2.3 C 0 km/h
37 01-12-2011 07:24:02 2.4 C 5.37 g/m*3 2.4 C 0 km/h
38 01-12-2011 07:36:01 2.5 C 5.4 g/m*3 2.5 C 0 km/h
39 01-12-2011 07:36:01 2.5 C 5.4 g/m*3 2.5 C 0 km/h
40 01-12-2011 07:36:01 2.5 C 5.4 g/m*3 2.5 C 0 km/h
41 01-12-2011 07:36:01 2.5 C 5.4 g/m*3 2.5 C 0 km/h
42 01-12-2011 07:48:03 2.8 C 5.51 g/m*3 2.8 C 0 km/h
43 01-12-2011 08:00:03 2.6 C 5.44 g/m*3 2.6 C 0 km/h
44 01-12-2011 08:12:02 2.7 C 5.48 g/m*3 2.7 C 0 km/h
45 01-12-2011 08:24:02 2.7 C 5.48 g/m*3 2.7 C 0 km/h
46 01-12-2011 08:36:02 2.4 C 5.37 g/m*3 2.4 C 0 km/h
47 01-12-2011 08:48:02 2.6 C 5.44 g/m*3 2.6 C 0 km/h
48 01-12-2011 09:00:02 3 C 5.59 g/m*3 3 C 0 km/h
49 01-12-2011 09:12:02 3.6 C 5.82 g/m*3 3.6 C 0 km/h
50 01-12-2011 09:24:02 3.5 C 5.78 g/m*3 3.5 C 0 km/h
Sensor: Nr:Datum:Temp:Abs-Feuchte:Windchill:Wind:
Aussen-T/F 51 01-12-2011 09:36:02 3.2 C 5.66 g/m*3 3.2 C 0 km/h
52 01-12-2011 09:48:02 3.4 C 5.74 g/m*3 3.4 C 0 km/h
53 01-12-2011 10:00:02 3.2 C 5.66 g/m*3 3.2 C 0 km/h
54 01-12-2011 10:12:02 3.4 C 5.74 g/m*3 3.4 C 0 km/h
55 01-12-2011 10:24:02 3.3 C 5.7 g/m*3 3.3 C 0 km/h
56 01-12-2011 10:36:01 3.7 C 5.86 g/m*3 3.7 C 0 km/h
57 01-12-2011 10:48:02 4 C 5.98 g/m*3 4 C 0 km/h
58 01-12-2011 11:00:03 4.8 C 6.3 g/m*3 4.8 C 0 km/h
59 01-12-2011 11:12:01 5.1 C 6.36 g/m*3 5.1 C 0 km/h
60 01-12-2011 11:24:01 5.7 C 6.62 g/m*3 5.7 C 0 km/h
61 01-12-2011 11:36:02 6 C 6.75 g/m*3 6 C 0 km/h
62 01-12-2011 11:48:02 5.8 C 6.66 g/m*3 5.8 C 0 km/h
63 01-12-2011 12:00:02 6.4 C 6.85 g/m*3 6.4 C 0 km/h
64 01-12-2011 12:12:02 6.8 C 7.04 g/m*3 6.8 C 0 km/h
65 01-12-2011 12:24:01 7.9 C 7.56 g/m*3 7.9 C 0 km/h
66 01-12-2011 12:36:02 8.1 C 7.57 g/m*3 8.1 C 0 km/h
67 01-12-2011 12:48:02 8.9 C 7.97 g/m*3 8.9 C 0 km/h
68 01-12-2011 13:00:02 9.1 C 7.9 g/m*3 9.1 C 0 km/h
69 01-12-2011 13:12:02 9.9 C 8.31 g/m*3 9.9 C 0 km/h
70 01-12-2011 13:24:01 9.6 C 8.06 g/m*3 9.6 C 0 km/h
71 01-12-2011 13:36:02 10.1 C 8.13 g/m*3 10.1 C 0 km/h
72 01-12-2011 13:48:01 10.1 C 8.04 g/m*3 10.1 C 0 km/h
73 01-12-2011 14:00:01 10 C 7.99 g/m*3 10 C 0 km/h
74 01-12-2011 14:12:02 10.4 C 8.19 g/m*3 10.4 C 0 km/h
75 01-12-2011 14:24:02 10.7 C 8.15 g/m*3 10.7 C 0 km/h
Sensor: Nr:Datum:Temp:Abs-Feuchte:Windchill:Wind:
Aussen-T/F 76 01-12-2011 14:36:01 10.7 C 7.96 g/m*3 10.7 C 0 km/h
77 01-12-2011 14:48:02 10.6 C 7.81 g/m*3 10.6 C 0 km/h
78 01-12-2011 15:00:02 10.5 C 7.76 g/m*3 10.5 C 0 km/h
79 01-12-2011 15:12:01 10.4 C 7.81 g/m*3 10.4 C 0 km/h
80 01-12-2011 15:24:02 10.2 C 7.8 g/m*3 10.2 C 0 km/h
81 01-12-2011 15:36:01 10.1 C 7.75 g/m*3 10.1 C 0 km/h
82 01-12-2011 15:48:02 10.2 C 7.71 g/m*3 10.2 C 0 km/h
83 01-12-2011 16:00:03 10.7 C 7.86 g/m*3 10.7 C 0 km/h
84 01-12-2011 16:12:02 11 C 7.61 g/m*3 11 C 0 km/h
85 01-12-2011 16:24:02 11.5 C 7.33 g/m*3 11.5 C 0 km/h
86 01-12-2011 16:36:02 11.9 C 7.2 g/m*3 11.9 C 0 km/h
87 01-12-2011 16:48:01 12.1 C 7.08 g/m*3 12.1 C 0 km/h
88 01-12-2011 17:00:01 12 C 7.03 g/m*3 12 C 0 km/h
89 01-12-2011 17:12:02 11.8 C 7.16 g/m*3 11.8 C 0 km/h
90 01-12-2011 17:24:01 11.9 C 7.1 g/m*3 11.9 C 0 km/h
91 01-12-2011 17:36:02 11.4 C 7.19 g/m*3 11.4 C 0 km/h
92 01-12-2011 17:48:01 11.2 C 7.3 g/m*3 11.2 C 0 km/h
93 01-12-2011 18:00:01 11.7 C 7.32 g/m*3 11.7 C 0 km/h
94 01-12-2011 18:12:02 11.3 C 7.24 g/m*3 11.3 C 0 km/h
95 01-12-2011 18:24:01 11.1 C 7.25 g/m*3 11.1 C 0 km/h
96 01-12-2011 18:36:02 11 C 7.31 g/m*3 11 C 0 km/h
97 01-12-2011 18:48:01 10.8 C 7.51 g/m*3 10.8 C 0 km/h
98 01-12-2011 19:00:01 10.4 C 7.42 g/m*3 10.4 C 0 km/h
99 01-12-2011 19:12:02 10.4 C 7.61 g/m*3 10.4 C 0 km/h
100 01-12-2011 19:24:02 10.1 C 7.66 g/m*3 10.1 C 0 km/h
Sensor: Nr:Datum:Temp:Abs-Feuchte:Windchill:Wind:
Aussen-T/F 101 01-12-2011 19:36:01 9.9 C 7.84 g/m*3 9.9 C 0 km/h
102 01-12-2011 19:48:02 9.7 C 7.84 g/m*3 9.7 C 0 km/h
103 01-12-2011 20:00:02 9.6 C 7.88 g/m*3 9.6 C 0 km/h
104 01-12-2011 20:12:01 9.4 C 7.78 g/m*3 9.4 C 0 km/h
105 01-12-2011 20:24:02 9.3 C 7.82 g/m*3 9.3 C 0 km/h
106 01-12-2011 20:36:01 9.3 C 7.82 g/m*3 9.3 C 0 km/h
107 01-12-2011 20:48:02 9.2 C 7.77 g/m*3 9.2 C 0 km/h
108 01-12-2011 21:00:02 9.3 C 7.82 g/m*3 9.3 C 0 km/h
109 01-12-2011 21:12:02 9.3 C 7.91 g/m*3 9.3 C 0 km/h
110 01-12-2011 21:24:02 9.4 C 7.96 g/m*3 9.4 C 0 km/h
111 01-12-2011 21:36:03 9.5 C 8.01 g/m*3 9.5 C 0 km/h
112 01-12-2011 21:48:02 9.5 C 7.92 g/m*3 9.5 C 0 km/h
113 01-12-2011 22:00:02 9.6 C 7.97 g/m*3 9.6 C 0 km/h
114 01-12-2011 22:12:01 9.6 C 7.97 g/m*3 9.6 C 0 km/h
115 01-12-2011 22:24:02 9.7 C 8.02 g/m*3 9.7 C 0 km/h
116 01-12-2011 22:36:02 9.8 C 8.07 g/m*3 9.8 C 0 km/h
117 01-12-2011 22:48:02 9.8 C 8.07 g/m*3 9.8 C 0 km/h
118 01-12-2011 23:00:02 9.6 C 7.97 g/m*3 9.6 C 0 km/h
119 01-12-2011 23:12:02 9.7 C 8.02 g/m*3 9.7 C 0 km/h
120 01-12-2011 23:24:02 9.5 C 7.92 g/m*3 9.5 C 0 km/h
121 01-12-2011 23:36:02 9.7 C 8.02 g/m*3 9.7 C 0 km/h
122 01-12-2011 23:48:01 9.8 C 8.07 g/m*3 9.8 C 0 km/h
123 02-12-2011 00:00:01 10.6 C 8.3 g/m*3 10.6 C 0 km/h
124 02-12-2011 00:12:01 11.2 C 8.11 g/m*3 11.2 C 0 km/h
125 02-12-2011 00:24:01 10.9 C 7.76 g/m*3 10.9 C 0 km/h
Sensor: Nr:Datum:Temp:Abs-Feuchte:Windchill:Wind:
Aussen-T/F 126 02-12-2011 00:36:01 10.5 C 7.66 g/m*3 10.5 C 0 km/h
127 02-12-2011 00:48:01 10.2 C 7.61 g/m*3 10.2 C 0 km/h
128 02-12-2011 01:00:01 10 C 7.61 g/m*3 10 C 0 km/h
129 02-12-2011 01:12:01 10 C 7.71 g/m*3 10 C 0 km/h
130 02-12-2011 01:24:02 9.8 C 7.79 g/m*3 9.8 C 0 km/h
131 02-12-2011 01:36:01 9.5 C 7.65 g/m*3 9.5 C 0 km/h
132 02-12-2011 01:48:03 9.5 C 7.74 g/m*3 9.5 C 0 km/h
133 02-12-2011 02:00:03 9.5 C 7.74 g/m*3 9.5 C 0 km/h
134 02-12-2011 02:12:02 8.8 C 7.4 g/m*3 8.8 C 0 km/h
135 02-12-2011 02:24:02 8.6 C 7.39 g/m*3 8.6 C 0 km/h
136 02-12-2011 02:36:02 9.5 C 7.65 g/m*3 9.5 C 0 km/h
137 02-12-2011 02:49:04 9.8 C 7.42 g/m*3 9.8 C 0 km/h
138 02-12-2011 03:01:04 9.6 C 7.15 g/m*3 9.6 C 0 km/h
139 02-12-2011 03:13:03 9.2 C 6.88 g/m*3 9.2 C 0 km/h
140 02-12-2011 03:25:03 10 C 6.58 g/m*3 10 C 0 km/h
141 02-12-2011 03:37:03 9.7 C 6.45 g/m*3 9.7 C 0 km/h
142 02-12-2011 03:49:03 8.8 C 6.35 g/m*3 8.8 C 0 km/h
143 02-12-2011 04:01:02 9.2 C 6.34 g/m*3 9.2 C 0 km/h
144 02-12-2011 04:13:02 11.2 C 6.69 g/m*3 11.2 C 0 km/h
145 02-12-2011 04:25:02 10.3 C 6.03 g/m*3 10.3 C 0 km/h
146 02-12-2011 04:37:02 10.4 C 6.17 g/m*3 10.4 C 0 km/h
147 02-12-2011 04:49:02 10.1 C 6.05 g/m*3 10.1 C 0 km/h
148 02-12-2011 05:01:02 10 C 6.01 g/m*3 10 C 0 km/h
149 02-12-2011 05:13:02 10.1 C 6.05 g/m*3 10.1 C 0 km/h
150 02-12-2011 05:25:02 9.3 C 6.2 g/m*3 9.3 C 0 km/h
Sensor: Nr:Datum:Temp:Abs-Feuchte:Windchill:Wind:
Aussen-T/F 151 02-12-2011 05:37:02 10.4 C 6.46 g/m*3 10.4 C 0 km/h
152 02-12-2011 05:49:02 11.9 C 6.46 g/m*3 11.9 C 0 km/h
153 02-12-2011 06:01:02 12.4 C 6.23 g/m*3 12.4 C 0 km/h
154 02-12-2011 06:13:02 12.3 C 6.19 g/m*3 12.3 C 0 km/h
155 02-12-2011 06:25:01 12.5 C 6.27 g/m*3 12.5 C 0 km/h
156 02-12-2011 06:37:02 12.1 C 6.22 g/m*3 12.1 C 0 km/h
157 02-12-2011 06:49:02 12.2 C 6.26 g/m*3 12.2 C 0 km/h
158 02-12-2011 07:01:02 12 C 6.5 g/m*3 12 C 0 km/h
159 02-12-2011 07:13:02 11.9 C 6.67 g/m*3 11.9 C 0 km/h
160 02-12-2011 07:25:01 11.8 C 6.74 g/m*3 11.8 C 0 km/h
161 02-12-2011 07:37:02 11.7 C 6.69 g/m*3 11.7 C 0 km/h
162 02-12-2011 07:49:02 11.7 C 6.69 g/m*3 11.7 C 0 km/h
163 02-12-2011 08:01:02 11.7 C 6.59 g/m*3 11.7 C 0 km/h
164 02-12-2011 08:13:02 11.7 C 6.59 g/m*3 11.7 C 0 km/h
165 02-12-2011 08:25:01 11.8 C 6.63 g/m*3 11.8 C 0 km/h
166 02-12-2011 08:37:02 11.7 C 6.59 g/m*3 11.7 C 0 km/h
167 02-12-2011 08:49:01 11.8 C 6.63 g/m*3 11.8 C 0 km/h
168 02-12-2011 09:01:02 11.8 C 6.63 g/m*3 11.8 C 0 km/h
169 02-12-2011 09:13:02 11.9 C 6.67 g/m*3 11.9 C 0 km/h
170 02-12-2011 09:25:02 11.9 C 6.57 g/m*3 11.9 C 0 km/h
171 02-12-2011 09:37:01 12 C 6.5 g/m*3 12 C 0 km/h
172 02-12-2011 09:49:02 12 C 6.39 g/m*3 12 C 0 km/h
173 02-12-2011 10:01:01 12 C 6.39 g/m*3 12 C 0 km/h
174 02-12-2011 10:13:01 12 C 6.5 g/m*3 12 C 0 km/h
175 02-12-2011 10:25:02 12 C 6.5 g/m*3 12 C 0 km/h
Sensor: Nr:Datum:Temp:Abs-Feuchte:Windchill:Wind:
Aussen-T/F 176 02-12-2011 10:37:01 9.8 C 5.85 g/m*3 9.8 C 0 km/h
177 02-12-2011 10:49:02 8 C 6.04 g/m*3 8 C 0 km/h
178 02-12-2011 11:01:02 7.2 C 6.28 g/m*3 7.2 C 0 km/h
179 02-12-2011 11:13:02 7 C 6.35 g/m*3 7 C 0 km/h
180 02-12-2011 11:25:02 7 C 6.28 g/m*3 7 C 0 km/h
181 02-12-2011 11:37:02 6.9 C 6.24 g/m*3 6.9 C 0 km/h
182 02-12-2011 11:49:01 7 C 6.12 g/m*3 7 C 0 km/h
183 02-12-2011 12:01:02 7.3 C 6.08 g/m*3 7.3 C 0 km/h
184 02-12-2011 12:13:02 7.5 C 6.08 g/m*3 7.5 C 0 km/h
185 02-12-2011 12:25:01 7.5 C 6 g/m*3 7.5 C 0 km/h
186 02-12-2011 12:37:01 7.3 C 5.93 g/m*3 7.3 C 0 km/h
187 02-12-2011 12:49:01 7.3 C 6 g/m*3 7.3 C 0 km/h
188 02-12-2011 13:01:02 7.5 C 5.92 g/m*3 7.5 C 0 km/h
189 02-12-2011 13:13:02 7.7 C 5.92 g/m*3 7.7 C 0 km/h
190 02-12-2011 13:25:01 7.8 C 5.79 g/m*3 7.8 C 0 km/h
191 02-12-2011 13:37:01 7.6 C 5.72 g/m*3 7.6 C 0 km/h
192 02-12-2011 13:49:01 7.6 C 5.96 g/m*3 7.6 C 0 km/h
193 02-12-2011 14:01:02 7.5 C 5.76 g/m*3 7.5 C 0 km/h
194 02-12-2011 14:13:02 7.5 C 5.6 g/m*3 7.5 C 0 km/h
195 02-12-2011 14:25:02 7.3 C 5.61 g/m*3 7.3 C 0 km/h
196 02-12-2011 14:37:01 6.7 C 5.47 g/m*3 6.7 C 0 km/h
197 02-12-2011 14:49:02 6.4 C 5.51 g/m*3 6.4 C 0 km/h
198 02-12-2011 15:01:01 6.4 C 5.66 g/m*3 6.4 C 0 km/h
199 02-12-2011 15:13:01 6.2 C 5.74 g/m*3 6.2 C 0 km/h
200 02-12-2011 15:25:02 5.9 C 5.84 g/m*3 5.9 C 0 km/h
Sensor: Nr:Datum:Temp:Abs-Feuchte:Windchill:Wind:
Aussen-T/F 201 02-12-2011 15:37:01 6 C 5.81 g/m*3 6 C 0 km/h
202 02-12-2011 15:49:02 5.7 C 5.84 g/m*3 5.7 C 0 km/h
203 02-12-2011 16:01:02 5.5 C 5.83 g/m*3 5.5 C 0 km/h
204 02-12-2011 16:13:02 4.9 C 5.67 g/m*3 4.9 C 0 km/h
205 02-12-2011 16:25:02 4.7 C 5.66 g/m*3 4.7 C 0 km/h
206 02-12-2011 16:37:03 4.3 C 5.58 g/m*3 4.3 C 0 km/h
207 02-12-2011 16:49:02 4.5 C 5.72 g/m*3 4.5 C 0 km/h
208 02-12-2011 17:01:02 4.2 C 5.61 g/m*3 4.2 C 0 km/h
209 02-12-2011 17:13:02 3.6 C 5.45 g/m*3 3.6 C 0 km/h
210 02-12-2011 17:25:02 3 C 5.23 g/m*3 3 C 0 km/h
211 02-12-2011 17:37:02 2.8 C 5.22 g/m*3 2.8 C 0 km/h
212 02-12-2011 17:49:02 2.6 C 5.15 g/m*3 2.6 C 0 km/h
213 02-12-2011 18:01:02 2.1 C 4.98 g/m*3 2.1 C 0 km/h
214 02-12-2011 18:13:02 2.5 C 5.17 g/m*3 2.5 C 0 km/h
215 02-12-2011 18:25:02 2.1 C 5.04 g/m*3 2.1 C 0 km/h
216 02-12-2011 18:37:02 2.1 C 5.04 g/m*3 2.1 C 0 km/h
217 02-12-2011 18:49:02 2 C 5.06 g/m*3 2 C 0 km/h
218 02-12-2011 19:01:02 1.8 C 4.99 g/m*3 1.8 C 0 km/h
219 02-12-2011 19:13:02 1.7 C 4.95 g/m*3 1.7 C 0 km/h
220 02-12-2011 19:25:02 1.8 C 5.04 g/m*3 1.8 C 0 km/h
221 02-12-2011 19:37:02 1.5 C 4.94 g/m*3 1.5 C 0 km/h
222 02-12-2011 19:49:02 1.2 C 4.84 g/m*3 1.2 C 0 km/h
223 02-12-2011 20:01:02 0.6 C 4.65 g/m*3 0.6 C 0 km/h
224 02-12-2011 20:13:02 0.9 C 4.74 g/m*3 0.9 C 0 km/h
225 02-12-2011 20:25:03 0.6 C 4.65 g/m*3 0.6 C 0 km/h
Sensor: Nr:Datum:Temp:Abs-Feuchte:Windchill:Wind:
Aussen-T/F 226 02-12-2011 20:37:02 0.4 C 4.58 g/m*3 0.4 C 0 km/h
227 02-12-2011 20:49:02 1.8 C 5.04 g/m*3 1.8 C 0 km/h
228 02-12-2011 21:01:02 1.7 C 5.01 g/m*3 1.7 C 0 km/h
229 02-12-2011 21:13:02 1.8 C 5.1 g/m*3 1.8 C 0 km/h
230 02-12-2011 21:25:02 1.8 C 5.1 g/m*3 1.8 C 0 km/h
231 02-12-2011 21:37:02 1.8 C 5.1 g/m*3 1.8 C 0 km/h
232 02-12-2011 21:49:02 1.8 C 5.1 g/m*3 1.8 C 0 km/h
233 02-12-2011 22:01:01 2.3 C 5.22 g/m*3 2.3 C 0 km/h
234 02-12-2011 22:13:01 2 C 5.11 g/m*3 2 C 0 km/h
235 02-12-2011 22:25:02 2 C 5.11 g/m*3 2 C 0 km/h
236 02-12-2011 22:37:02 2 C 5.11 g/m*3 2 C 0 km/h
237 02-12-2011 22:49:01 1.7 C 5.01 g/m*3 1.7 C 0 km/h
238 02-12-2011 23:01:02 1.6 C 4.97 g/m*3 1.6 C 0 km/h
239 02-12-2011 23:13:02 1.6 C 4.97 g/m*3 1.6 C 0 km/h
240 02-12-2011 23:25:01 1.5 C 4.94 g/m*3 1.5 C 0 km/h
241 02-12-2011 23:37:02 1 C 4.78 g/m*3 1 C 0 km/h
242 02-12-2011 23:49:02 0.3 C 4.55 g/m*3 0.3 C 0 km/h
243 03-12-2011 00:01:02 0.2 C 4.52 g/m*3 0.2 C 0 km/h
244 03-12-2011 00:13:02 0.7 C 4.68 g/m*3 0.7 C 0 km/h
245 03-12-2011 00:25:02 0.5 C 4.61 g/m*3 0.5 C 0 km/h
246 03-12-2011 00:37:02 0.1 C 4.49 g/m*3 0.1 C 0 km/h
247 03-12-2011 00:49:02 -0.3 C 4.37 g/m*3 -0.3 C 0 km/h
248 03-12-2011 01:01:02 -0.4 C 4.34 g/m*3 -0.4 C 0 km/h
249 03-12-2011 01:13:03 -0.3 C 4.37 g/m*3 -0.3 C 0 km/h
250 03-12-2011 01:25:02 -0.2 C 4.4 g/m*3 -0.2 C 0 km/h
Sensor: Nr:Datum:Temp:Abs-Feuchte:Windchill:Wind:
Aussen-T/F 251 03-12-2011 01:37:02 -0.4 C 4.34 g/m*3 -0.4 C 0 km/h
252 03-12-2011 01:49:02 0 C 4.46 g/m*3 0 C 0 km/h
253 03-12-2011 02:01:02 0.1 C 4.54 g/m*3 0.1 C 0 km/h
254 03-12-2011 02:13:02 0.5 C 4.66 g/m*3 0.5 C 0 km/h
255 03-12-2011 02:25:03 0.7 C 4.73 g/m*3 0.7 C 0 km/h
256 03-12-2011 02:37:02 1.1 C 4.86 g/m*3 1.1 C 0 km/h
257 03-12-2011 02:50:04 2.2 C 5.24 g/m*3 2.2 C 0 km/h
258 03-12-2011 03:02:04 2.4 C 5.31 g/m*3 2.4 C 0 km/h
259 03-12-2011 03:14:03 2 C 5.17 g/m*3 2 C 0 km/h
260 03-12-2011 03:26:03 1.8 C 5.1 g/m*3 1.8 C 0 km/h
261 03-12-2011 03:38:01 2 C 5.17 g/m*3 2 C 0 km/h
262 03-12-2011 03:50:01 2.2 C 5.24 g/m*3 2.2 C 0 km/h
263 03-12-2011 04:02:02 2.2 C 5.24 g/m*3 2.2 C 0 km/h
264 03-12-2011 04:14:02 2.6 C 5.38 g/m*3 2.6 C 0 km/h
265 03-12-2011 04:26:02 3.2 C 5.54 g/m*3 3.2 C 0 km/h
266 03-12-2011 04:38:01 3.2 C 5.48 g/m*3 3.2 C 0 km/h
267 03-12-2011 04:50:02 3.3 C 5.4 g/m*3 3.3 C 0 km/h
268 03-12-2011 05:02:01 3.9 C 5.56 g/m*3 3.9 C 0 km/h
269 03-12-2011 05:14:01 4 C 5.4 g/m*3 4 C 0 km/h
270 03-12-2011 05:26:02 4.2 C 5.35 g/m*3 4.2 C 0 km/h
271 03-12-2011 05:38:01 4.3 C 5.25 g/m*3 4.3 C 0 km/h
272 03-12-2011 05:50:02 4.3 C 5.25 g/m*3 4.3 C 0 km/h
273 03-12-2011 06:02:01 4.1 C 5.25 g/m*3 4.1 C 0 km/h
274 03-12-2011 06:14:01 4.4 C 5.42 g/m*3 4.4 C 0 km/h
275 03-12-2011 06:26:01 5.3 C 5.48 g/m*3 5.3 C 0 km/h
Sensor: Nr:Datum:Temp:Abs-Feuchte:Windchill:Wind:
Aussen-T/F 276 03-12-2011 06:38:02 5.1 C 5.27 g/m*3 5.1 C 0 km/h
277 03-12-2011 06:50:02 5.3 C 5.34 g/m*3 5.3 C 0 km/h
278 03-12-2011 07:02:02 5.6 C 5.3 g/m*3 5.6 C 0 km/h
279 03-12-2011 07:14:02 5.8 C 5.3 g/m*3 5.8 C 0 km/h
280 03-12-2011 07:26:01 5.7 C 5.27 g/m*3 5.7 C 0 km/h
281 03-12-2011 07:38:02 5.8 C 5.23 g/m*3 5.8 C 0 km/h
282 03-12-2011 07:50:02 6 C 5.08 g/m*3 6 C 0 km/h
283 03-12-2011 08:02:02 6.1 C 5.04 g/m*3 6.1 C 0 km/h
284 03-12-2011 08:14:02 6.3 C 4.96 g/m*3 6.3 C 0 km/h
285 03-12-2011 08:26:01 6.5 C 4.95 g/m*3 6.5 C 0 km/h
286 03-12-2011 08:38:02 6.6 C 4.91 g/m*3 6.6 C 0 km/h
287 03-12-2011 08:50:02 6.7 C 4.86 g/m*3 6.7 C 0 km/h
288 03-12-2011 09:02:02 6.9 C 4.85 g/m*3 6.9 C 0 km/h
289 03-12-2011 09:14:02 7 C 4.8 g/m*3 7 C 0 km/h
290 03-12-2011 09:26:02 7.1 C 4.84 g/m*3 7.1 C 0 km/h
291 03-12-2011 09:38:02 7.2 C 4.87 g/m*3 7.2 C 0 km/h
292 03-12-2011 09:50:02 7.2 C 4.87 g/m*3 7.2 C 0 km/h
293 03-12-2011 10:02:01 7.3 C 4.98 g/m*3 7.3 C 0 km/h
294 03-12-2011 10:14:01 7.5 C 5.04 g/m*3 7.5 C 0 km/h
295 03-12-2011 10:26:02 7.5 C 5.04 g/m*3 7.5 C 0 km/h
296 03-12-2011 10:38:01 7.5 C 5.12 g/m*3 7.5 C 0 km/h
297 03-12-2011 10:50:02 7.5 C 5.2 g/m*3 7.5 C 0 km/h
298 03-12-2011 11:02:02 7.5 C 5.2 g/m*3 7.5 C 0 km/h
299 03-12-2011 11:14:02 7.6 C 5.24 g/m*3 7.6 C 0 km/h
300 03-12-2011 11:26:02 7.7 C 5.27 g/m*3 7.7 C 0 km/h
Sensor: Nr:Datum:Temp:Abs-Feuchte:Windchill:Wind:
Aussen-T/F 301 03-12-2011 11:38:03 7.7 C 5.27 g/m*3 7.7 C 0 km/h
302 03-12-2011 11:50:02 7.8 C 5.3 g/m*3 7.8 C 0 km/h
303 03-12-2011 12:02:02 7.9 C 5.34 g/m*3 7.9 C 0 km/h
304 03-12-2011 12:14:02 7.9 C 5.34 g/m*3 7.9 C 0 km/h
305 03-12-2011 12:26:01 7.9 C 5.42 g/m*3 7.9 C 0 km/h
306 03-12-2011 12:38:02 8 C 5.37 g/m*3 8 C 0 km/h
307 03-12-2011 12:50:02 7.8 C 5.55 g/m*3 7.8 C 0 km/h
308 03-12-2011 13:02:02 7.5 C 5.6 g/m*3 7.5 C 0 km/h
309 03-12-2011 13:14:02 7.6 C 5.72 g/m*3 7.6 C 0 km/h
310 03-12-2011 13:26:01 7.7 C 5.84 g/m*3 7.7 C 0 km/h
311 03-12-2011 13:38:02 7.5 C 5.84 g/m*3 7.5 C 0 km/h
312 03-12-2011 13:50:02 7.7 C 6 g/m*3 7.7 C 0 km/h
313 03-12-2011 14:02:02 7.9 C 6 g/m*3 7.9 C 0 km/h
314 03-12-2011 14:14:02 8.1 C 5.91 g/m*3 8.1 C 0 km/h
315 03-12-2011 14:26:02 8.2 C 5.86 g/m*3 8.2 C 0 km/h
316 03-12-2011 14:38:02 8.3 C 5.9 g/m*3 8.3 C 0 km/h
317 03-12-2011 14:50:01 8.4 C 5.85 g/m*3 8.4 C 0 km/h
318 03-12-2011 15:02:02 8.6 C 5.93 g/m*3 8.6 C 0 km/h
319 03-12-2011 15:14:02 8.6 C 6.02 g/m*3 8.6 C 0 km/h
320 03-12-2011 15:26:02 8.6 C 6.02 g/m*3 8.6 C 0 km/h
321 03-12-2011 15:38:02 8.5 C 6.06 g/m*3 8.5 C 0 km/h
322 03-12-2011 15:50:02 8.5 C 6.15 g/m*3 8.5 C 0 km/h
323 03-12-2011 16:02:01 8.6 C 6.19 g/m*3 8.6 C 0 km/h
324 03-12-2011 16:14:01 8.6 C 6.19 g/m*3 8.6 C 0 km/h
325 03-12-2011 16:26:02 8.4 C 6.19 g/m*3 8.4 C 0 km/h
Sensor: Nr:Datum:Temp:Abs-Feuchte:Windchill:Wind:
Aussen-T/F 326 03-12-2011 16:38:02 8.3 C 6.32 g/m*3 8.3 C 0 km/h
327 03-12-2011 16:50:01 8.4 C 6.45 g/m*3 8.4 C 0 km/h
328 03-12-2011 17:02:02 8.4 C 6.45 g/m*3 8.4 C 0 km/h
329 03-12-2011 17:14:02 8.7 C 6.49 g/m*3 8.7 C 0 km/h
330 03-12-2011 17:26:01 8.7 C 6.4 g/m*3 8.7 C 0 km/h
331 03-12-2011 17:38:02 8.7 C 6.4 g/m*3 8.7 C 0 km/h
332 03-12-2011 17:50:02 8.9 C 6.48 g/m*3 8.9 C 0 km/h
333 03-12-2011 18:02:02 9 C 6.44 g/m*3 9 C 0 km/h
334 03-12-2011 18:14:02 8.8 C 6.61 g/m*3 8.8 C 0 km/h
335 03-12-2011 18:26:01 8.7 C 6.66 g/m*3 8.7 C 0 km/h
336 03-12-2011 18:38:02 8.6 C 6.7 g/m*3 8.6 C 0 km/h
337 03-12-2011 18:50:02 8.6 C 6.79 g/m*3 8.6 C 0 km/h
338 03-12-2011 19:02:02 8.7 C 6.83 g/m*3 8.7 C 0 km/h
339 03-12-2011 19:14:02 8.8 C 6.88 g/m*3 8.8 C 0 km/h
340 03-12-2011 19:26:01 9 C 6.79 g/m*3 9 C 0 km/h
341 03-12-2011 19:38:02 9 C 6.7 g/m*3 9 C 0 km/h
342 03-12-2011 19:50:01 9.1 C 6.74 g/m*3 9.1 C 0 km/h
343 03-12-2011 20:02:02 9.2 C 6.7 g/m*3 9.2 C 0 km/h
344 03-12-2011 20:14:02 9.3 C 6.65 g/m*3 9.3 C 0 km/h
345 03-12-2011 20:26:02 9.2 C 6.61 g/m*3 9.2 C 0 km/h
346 03-12-2011 20:38:02 9.2 C 6.7 g/m*3 9.2 C 0 km/h
347 03-12-2011 20:50:02 9.3 C 6.65 g/m*3 9.3 C 0 km/h
348 03-12-2011 21:02:02 9.1 C 6.57 g/m*3 9.1 C 0 km/h
349 03-12-2011 21:14:02 9.1 C 6.65 g/m*3 9.1 C 0 km/h
350 03-12-2011 21:26:02 9.3 C 6.65 g/m*3 9.3 C 0 km/h
Sensor: Nr:Datum:Temp:Abs-Feuchte:Windchill:Wind:
Aussen-T/F 351 03-12-2011 21:38:01 9.2 C 6.52 g/m*3 9.2 C 0 km/h
352 03-12-2011 21:50:02 8.9 C 6.48 g/m*3 8.9 C 0 km/h
353 03-12-2011 22:02:01 8.5 C 6.4 g/m*3 8.5 C 0 km/h
354 03-12-2011 22:14:01 8.2 C 6.45 g/m*3 8.2 C 0 km/h
355 03-12-2011 22:26:02 8.5 C 6.57 g/m*3 8.5 C 0 km/h
356 03-12-2011 22:38:02 8.5 C 6.4 g/m*3 8.5 C 0 km/h
357 03-12-2011 22:50:02 8 C 6.2 g/m*3 8 C 0 km/h
358 03-12-2011 23:02:02 7.2 C 6.2 g/m*3 7.2 C 0 km/h
359 03-12-2011 23:14:02 7.3 C 6.4 g/m*3 7.3 C 0 km/h
360 03-12-2011 23:26:02 7.2 C 6.44 g/m*3 7.2 C 0 km/h
361 03-12-2011 23:38:02 7.6 C 6.61 g/m*3 7.6 C 0 km/h
362 03-12-2011 23:50:01 7.5 C 6.56 g/m*3 7.5 C 0 km/h
363 04-12-2011 00:02:02 7.8 C 6.69 g/m*3 7.8 C 0 km/h
364 04-12-2011 00:14:02 7.6 C 6.53 g/m*3 7.6 C 0 km/h
365 04-12-2011 00:26:01 6.9 C 6.31 g/m*3 6.9 C 0 km/h
366 04-12-2011 00:38:02 6.8 C 6.35 g/m*3 6.8 C 0 km/h
367 04-12-2011 00:50:02 7.1 C 6.47 g/m*3 7.1 C 0 km/h
368 04-12-2011 01:02:02 7.3 C 6.56 g/m*3 7.3 C 0 km/h
369 04-12-2011 01:14:02 6.6 C 6.27 g/m*3 6.6 C 0 km/h
370 04-12-2011 01:26:02 6.5 C 6.3 g/m*3 6.5 C 0 km/h
371 04-12-2011 01:38:02 6.6 C 6.49 g/m*3 6.6 C 0 km/h
372 04-12-2011 01:50:02 7.1 C 6.71 g/m*3 7.1 C 0 km/h
373 04-12-2011 02:02:02 7.4 C 6.84 g/m*3 7.4 C 0 km/h
374 04-12-2011 02:14:03 7.7 C 6.89 g/m*3 7.7 C 0 km/h
375 04-12-2011 02:26:02 8.6 C 6.87 g/m*3 8.6 C 0 km/h
Sensor: Nr:Datum:Temp:Abs-Feuchte:Windchill:Wind:
Aussen-T/F 376 04-12-2011 02:38:02 9.3 C 6.56 g/m*3 9.3 C 0 km/h
377 04-12-2011 02:51:03 9.5 C 6.46 g/m*3 9.5 C 0 km/h
378 04-12-2011 03:03:03 9.6 C 6.41 g/m*3 9.6 C 0 km/h
379 04-12-2011 03:15:03 9.4 C 6.42 g/m*3 9.4 C 0 km/h
380 04-12-2011 03:27:03 9.4 C 6.51 g/m*3 9.4 C 0 km/h
381 04-12-2011 03:39:01 9.6 C 6.6 g/m*3 9.6 C 0 km/h
382 04-12-2011 03:51:01 9.7 C 6.55 g/m*3 9.7 C 0 km/h
383 04-12-2011 04:03:02 9.9 C 6.63 g/m*3 9.9 C 0 km/h
384 04-12-2011 04:15:01 10 C 6.67 g/m*3 10 C 0 km/h
385 04-12-2011 04:27:01 10.1 C 6.71 g/m*3 10.1 C 0 km/h
386 04-12-2011 04:39:02 10 C 6.67 g/m*3 10 C 0 km/h
387 04-12-2011 04:51:01 10.2 C 6.85 g/m*3 10.2 C 0 km/h
388 04-12-2011 05:03:02 10 C 6.86 g/m*3 10 C 0 km/h
389 04-12-2011 05:15:01 9.6 C 7.05 g/m*3 9.6 C 0 km/h
390 04-12-2011 05:27:01 9.4 C 7.24 g/m*3 9.4 C 0 km/h
391 04-12-2011 05:39:02 9.2 C 7.32 g/m*3 9.2 C 0 km/h
392 04-12-2011 05:51:01 8.9 C 7.45 g/m*3 8.9 C 0 km/h
393 04-12-2011 06:03:02 8.9 C 7.53 g/m*3 8.9 C 0 km/h
394 04-12-2011 06:15:02 9 C 7.58 g/m*3 9 C 0 km/h
395 04-12-2011 06:27:02 9.2 C 7.68 g/m*3 9.2 C 0 km/h
396 04-12-2011 06:39:01 8.9 C 7.62 g/m*3 8.9 C 0 km/h
397 04-12-2011 06:51:02 8.7 C 7.52 g/m*3 8.7 C 0 km/h
398 04-12-2011 07:03:01 8.7 C 7.61 g/m*3 8.7 C 0 km/h
399 04-12-2011 07:15:02 8.7 C 7.61 g/m*3 8.7 C 0 km/h
400 04-12-2011 07:27:03 9.1 C 7.81 g/m*3 9.1 C 0 km/h
Sensor: Nr:Datum:Temp:Abs-Feuchte:Windchill:Wind:
Aussen-T/F 401 04-12-2011 07:39:01 9.3 C 7.91 g/m*3 9.3 C 0 km/h
402 04-12-2011 07:51:02 9.3 C 7.91 g/m*3 9.3 C 0 km/h
403 04-12-2011 08:03:02 9.1 C 7.81 g/m*3 9.1 C 0 km/h
404 04-12-2011 08:15:02 8.9 C 7.8 g/m*3 8.9 C 0 km/h
405 04-12-2011 08:27:02 8.5 C 7.51 g/m*3 8.5 C 0 km/h
406 04-12-2011 08:39:02 8.2 C 7.37 g/m*3 8.2 C 0 km/h
407 04-12-2011 08:51:02 8 C 7.19 g/m*3 8 C 0 km/h
408 04-12-2011 09:03:02 8 C 7.19 g/m*3 8 C 0 km/h
409 04-12-2011 09:15:01 8 C 7.28 g/m*3 8 C 0 km/h
410 04-12-2011 09:27:01 8 C 7.28 g/m*3 8 C 0 km/h
411 04-12-2011 09:39:02 8.1 C 7.16 g/m*3 8.1 C 0 km/h
412 04-12-2011 09:51:02 8.1 C 6.99 g/m*3 8.1 C 0 km/h
413 04-12-2011 10:03:02 8.1 C 6.99 g/m*3 8.1 C 0 km/h
414 04-12-2011 10:15:01 8.3 C 6.91 g/m*3 8.3 C 0 km/h
415 04-12-2011 10:27:01 8.6 C 6.87 g/m*3 8.6 C 0 km/h
416 04-12-2011 10:39:02 8.7 C 6.66 g/m*3 8.7 C 0 km/h
417 04-12-2011 10:51:01 9.1 C 6.39 g/m*3 9.1 C 0 km/h
418 04-12-2011 11:03:02 9.3 C 6.29 g/m*3 9.3 C 0 km/h
419 04-12-2011 11:15:02 9.3 C 6.38 g/m*3 9.3 C 0 km/h
420 04-12-2011 11:27:02 9.4 C 6.15 g/m*3 9.4 C 0 km/h
421 04-12-2011 11:39:02 9.4 C 5.88 g/m*3 9.4 C 0 km/h
422 04-12-2011 11:51:02 9.4 C 5.79 g/m*3 9.4 C 0 km/h
423 04-12-2011 12:03:02 9.4 C 5.79 g/m*3 9.4 C 0 km/h
424 04-12-2011 12:15:02 9.4 C 5.88 g/m*3 9.4 C 0 km/h
425 04-12-2011 12:27:02 9.6 C 5.77 g/m*3 9.6 C 0 km/h
Sensor: Nr:Datum:Temp:Abs-Feuchte:Windchill:Wind:
Aussen-T/F 426 04-12-2011 12:39:01 9.7 C 5.72 g/m*3 9.7 C 0 km/h
427 04-12-2011 12:51:02 9.7 C 5.81 g/m*3 9.7 C 0 km/h
428 04-12-2011 13:03:01 9.7 C 5.81 g/m*3 9.7 C 0 km/h
429 04-12-2011 13:15:01 9.7 C 5.81 g/m*3 9.7 C 0 km/h
430 04-12-2011 13:27:01 9 C 5.91 g/m*3 9 C 0 km/h
431 04-12-2011 13:39:02 8.6 C 6.19 g/m*3 8.6 C 0 km/h
432 04-12-2011 13:51:02 8.5 C 6.23 g/m*3 8.5 C 0 km/h
433 04-12-2011 14:03:02 8.6 C 6.44 g/m*3 8.6 C 0 km/h
434 04-12-2011 14:15:02 8.9 C 6.22 g/m*3 8.9 C 0 km/h
435 04-12-2011 14:27:02 8.9 C 6.13 g/m*3 8.9 C 0 km/h
436 04-12-2011 14:39:02 8.8 C 6.09 g/m*3 8.8 C 0 km/h
437 04-12-2011 14:51:02 8.3 C 6.07 g/m*3 8.3 C 0 km/h
438 04-12-2011 15:03:02 8.3 C 6.24 g/m*3 8.3 C 0 km/h
439 04-12-2011 15:15:02 8.3 C 6.41 g/m*3 8.3 C 0 km/h
440 04-12-2011 15:27:02 8 C 6.37 g/m*3 8 C 0 km/h
441 04-12-2011 15:39:02 8.4 C 6.36 g/m*3 8.4 C 0 km/h
442 04-12-2011 15:51:02 8.2 C 6.36 g/m*3 8.2 C 0 km/h
443 04-12-2011 16:03:02 8.5 C 6.49 g/m*3 8.5 C 0 km/h
444 04-12-2011 16:15:03 8.5 C 6.32 g/m*3 8.5 C 0 km/h
445 04-12-2011 16:27:03 8.7 C 6.31 g/m*3 8.7 C 0 km/h
446 04-12-2011 16:39:02 8.1 C 6.41 g/m*3 8.1 C 0 km/h
447 04-12-2011 16:51:03 7.7 C 6.65 g/m*3 7.7 C 0 km/h
448 04-12-2011 17:03:02 7.6 C 6.77 g/m*3 7.6 C 0 km/h
449 04-12-2011 17:15:02 7.5 C 6.88 g/m*3 7.5 C 0 km/h
450 04-12-2011 17:27:02 7.5 C 6.96 g/m*3 7.5 C 0 km/h
Sensor: Nr:Datum:Temp:Abs-Feuchte:Windchill:Wind:
Aussen-T/F 451 04-12-2011 17:39:02 7.5 C 7.04 g/m*3 7.5 C 0 km/h
452 04-12-2011 17:51:02 7.6 C 7.09 g/m*3 7.6 C 0 km/h
453 04-12-2011 18:03:02 7.4 C 7 g/m*3 7.4 C 0 km/h
454 04-12-2011 18:15:02 7.3 C 7.03 g/m*3 7.3 C 0 km/h
455 04-12-2011 18:27:02 7.3 C 7.03 g/m*3 7.3 C 0 km/h
456 04-12-2011 18:39:03 7.3 C 7.03 g/m*3 7.3 C 0 km/h
457 04-12-2011 18:51:02 7.3 C 7.03 g/m*3 7.3 C 0 km/h
458 04-12-2011 19:03:02 7.3 C 7.11 g/m*3 7.3 C 0 km/h
459 04-12-2011 19:15:01 7.5 C 7.2 g/m*3 7.5 C 0 km/h
460 04-12-2011 19:27:01 7.3 C 7.11 g/m*3 7.3 C 0 km/h
461 04-12-2011 19:39:02 7.4 C 7.16 g/m*3 7.4 C 0 km/h
462 04-12-2011 19:51:02 7.4 C 7.16 g/m*3 7.4 C 0 km/h
463 04-12-2011 20:03:02 7.4 C 7.16 g/m*3 7.4 C 0 km/h
464 04-12-2011 20:15:02 7.2 C 7.06 g/m*3 7.2 C 0 km/h
465 04-12-2011 20:27:02 7.2 C 7.06 g/m*3 7.2 C 0 km/h
466 04-12-2011 20:39:02 7.2 C 7.14 g/m*3 7.2 C 0 km/h
467 04-12-2011 20:51:02 7.3 C 7.19 g/m*3 7.3 C 0 km/h
468 04-12-2011 21:03:02 7.5 C 7.28 g/m*3 7.5 C 0 km/h
469 04-12-2011 21:15:03 7.9 C 7.47 g/m*3 7.9 C 0 km/h
470 04-12-2011 21:27:03 7.8 C 7.43 g/m*3 7.8 C 0 km/h
471 04-12-2011 21:39:02 7.7 C 7.38 g/m*3 7.7 C 0 km/h
472 04-12-2011 21:51:01 7.6 C 7.33 g/m*3 7.6 C 0 km/h
473 04-12-2011 22:03:01 7.5 C 7.2 g/m*3 7.5 C 0 km/h
474 04-12-2011 22:15:02 7.4 C 7.08 g/m*3 7.4 C 0 km/h
475 04-12-2011 22:27:02 7.3 C 7.03 g/m*3 7.3 C 0 km/h
Sensor: Nr:Datum:Temp:Abs-Feuchte:Windchill:Wind:
Aussen-T/F 476 04-12-2011 22:39:01 7.4 C 7.08 g/m*3 7.4 C 0 km/h
477 04-12-2011 22:51:03 7.3 C 7.03 g/m*3 7.3 C 0 km/h
478 04-12-2011 23:03:02 7.1 C 6.94 g/m*3 7.1 C 0 km/h
479 04-12-2011 23:15:02 7 C 6.9 g/m*3 7 C 0 km/h
480 04-12-2011 23:27:03 6.7 C 6.76 g/m*3 6.7 C 0 km/h
481 04-12-2011 23:39:02 6.4 C 6.48 g/m*3 6.4 C 0 km/h
482 04-12-2011 23:51:02 6 C 6.24 g/m*3 6 C 0 km/h
483 05-12-2011 00:03:01 5.7 C 6.19 g/m*3 5.7 C 0 km/h
484 05-12-2011 00:15:02 5.6 C 6.22 g/m*3 5.6 C 0 km/h
485 05-12-2011 00:27:02 5.5 C 6.18 g/m*3 5.5 C 0 km/h
486 05-12-2011 00:39:02 5.3 C 6.17 g/m*3 5.3 C 0 km/h
487 05-12-2011 00:51:02 5.3 C 6.17 g/m*3 5.3 C 0 km/h
488 05-12-2011 01:03:02 5.5 C 6.25 g/m*3 5.5 C 0 km/h
489 05-12-2011 01:15:02 5.5 C 6.18 g/m*3 5.5 C 0 km/h
490 05-12-2011 01:27:02 5.5 C 6.18 g/m*3 5.5 C 0 km/h
491 05-12-2011 01:39:02 5.6 C 6.15 g/m*3 5.6 C 0 km/h
492 05-12-2011 01:51:02 5.6 C 6.08 g/m*3 5.6 C 0 km/h
493 05-12-2011 02:03:01 5.4 C 5.93 g/m*3 5.4 C 0 km/h
494 05-12-2011 02:15:02 5.6 C 6.01 g/m*3 5.6 C 0 km/h
495 05-12-2011 02:27:02 5.7 C 5.98 g/m*3 5.7 C 0 km/h
496 05-12-2011 02:39:02 5.8 C 6.02 g/m*3 5.8 C 0 km/h
497 05-12-2011 02:52:04 5.6 C 5.94 g/m*3 5.6 C 0 km/h
498 05-12-2011 03:04:04 5.4 C 5.86 g/m*3 5.4 C 0 km/h
499 05-12-2011 03:16:03 5.1 C 5.47 g/m*3 5.1 C 0 km/h
500 05-12-2011 03:28:03 5.1 C 5.47 g/m*3 5.1 C 0 km/h
Sensor: Nr:Datum:Temp:Abs-Feuchte:Windchill:Wind:
Aussen-T/F 501 05-12-2011 03:40:02 5.1 C 5.34 g/m*3 5.1 C 0 km/h
502 05-12-2011 03:52:02 5.3 C 5.34 g/m*3 5.3 C 0 km/h
503 05-12-2011 04:04:01 5.3 C 5.34 g/m*3 5.3 C 0 km/h
504 05-12-2011 04:16:02 5.2 C 5.3 g/m*3 5.2 C 0 km/h
505 05-12-2011 04:28:02 4.9 C 5.13 g/m*3 4.9 C 0 km/h
506 05-12-2011 04:40:01 5.1 C 4.92 g/m*3 5.1 C 0 km/h
507 05-12-2011 04:52:02 4.7 C 4.86 g/m*3 4.7 C 0 km/h
508 05-12-2011 05:04:02 4.3 C 4.86 g/m*3 4.3 C 0 km/h
509 05-12-2011 05:16:02 4 C 4.7 g/m*3 4 C 0 km/h
510 05-12-2011 05:28:02 4.5 C 4.8 g/m*3 4.5 C 0 km/h
511 05-12-2011 05:40:02 3.9 C 4.67 g/m*3 3.9 C 0 km/h
512 05-12-2011 05:52:02 3.9 C 4.8 g/m*3 3.9 C 0 km/h
513 05-12-2011 06:04:02 3.4 C 4.7 g/m*3 3.4 C 0 km/h
514 05-12-2011 06:16:01 3.3 C 4.61 g/m*3 3.3 C 0 km/h
515 05-12-2011 06:28:01 4 C 4.64 g/m*3 4 C 0 km/h
516 05-12-2011 06:40:02 3.3 C 4.55 g/m*3 3.3 C 0 km/h
517 05-12-2011 06:52:02 3.5 C 4.61 g/m*3 3.5 C 0 km/h
518 05-12-2011 07:04:02 3.5 C 4.55 g/m*3 3.5 C 0 km/h
519 05-12-2011 07:16:01 3.6 C 4.64 g/m*3 3.6 C 0 km/h
520 05-12-2011 07:28:01 3.7 C 4.42 g/m*3 3.7 C 0 km/h
521 05-12-2011 07:40:02 2.9 C 4.55 g/m*3 2.9 C 0 km/h
522 05-12-2011 07:52:01 2.8 C 4.63 g/m*3 2.8 C 0 km/h
523 05-12-2011 08:04:02 2.9 C 4.72 g/m*3 2.9 C 0 km/h
524 05-12-2011 08:16:02 2.6 C 4.75 g/m*3 2.6 C 0 km/h
525 05-12-2011 08:28:02 2.1 C 4.59 g/m*3 2.1 C 0 km/h
Sensor: Nr:Datum:Temp:Abs-Feuchte:Windchill:Wind:
Aussen-T/F 526 05-12-2011 08:40:01 2.1 C 4.7 g/m*3 2.1 C 0 km/h
527 05-12-2011 08:52:02 2.1 C 4.81 g/m*3 2.1 C 0 km/h
528 05-12-2011 09:04:01 1.6 C 4.7 g/m*3 1.6 C 0 km/h
529 05-12-2011 09:16:01 1.8 C 4.82 g/m*3 1.8 C 0 km/h
530 05-12-2011 09:28:02 1.9 C 4.91 g/m*3 1.9 C 0 km/h
531 05-12-2011 09:40:01 2.1 C 4.98 g/m*3 2.1 C 0 km/h
532 05-12-2011 09:52:02 3 C 5.17 g/m*3 3 C 0 km/h
533 05-12-2011 10:04:01 2.9 C 5.08 g/m*3 2.9 C 0 km/h
534 05-12-2011 10:16:02 2.5 C 4.89 g/m*3 2.5 C 0 km/h
535 05-12-2011 10:28:02 3.5 C 5.04 g/m*3 3.5 C 0 km/h
536 05-12-2011 10:40:02 3.2 C 4.7 g/m*3 3.2 C 0 km/h
537 05-12-2011 10:52:02 3.9 C 4.8 g/m*3 3.9 C 0 km/h
538 05-12-2011 11:04:03 4 C 4.58 g/m*3 4 C 0 km/h
539 05-12-2011 11:16:02 3.9 C 4.55 g/m*3 3.9 C 0 km/h
540 05-12-2011 11:28:02 4.1 C 4.48 g/m*3 4.1 C 0 km/h
541 05-12-2011 11:40:02 4.6 C 4.5 g/m*3 4.6 C 0 km/h
542 05-12-2011 11:52:01 4.4 C 4.37 g/m*3 4.4 C 0 km/h
543 05-12-2011 12:04:01 4.7 C 4.53 g/m*3 4.7 C 0 km/h
544 05-12-2011 12:16:01 5.4 C 4.6 g/m*3 5.4 C 0 km/h
545 05-12-2011 12:28:01 5.1 C 4.24 g/m*3 5.1 C 0 km/h
546 05-12-2011 12:40:01 5.3 C 4.16 g/m*3 5.3 C 0 km/h
547 05-12-2011 12:52:01 5.7 C 4.2 g/m*3 5.7 C 0 km/h
548 05-12-2011 13:04:01 5.8 C 4.08 g/m*3 5.8 C 0 km/h
549 05-12-2011 13:16:02 5.8 C 3.87 g/m*3 5.8 C 0 km/h
550 05-12-2011 13:28:02 5.6 C 3.61 g/m*3 5.6 C 0 km/h
Sensor: Nr:Datum:Temp:Abs-Feuchte:Windchill:Wind:
Aussen-T/F 551 05-12-2011 13:40:01 5.6 C 3.68 g/m*3 5.6 C 0 km/h
552 05-12-2011 13:52:03 5.4 C 3.42 g/m*3 5.4 C 0 km/h
553 05-12-2011 14:04:02 5.1 C 3.49 g/m*3 5.1 C 0 km/h
554 05-12-2011 14:16:02 4.8 C 3.76 g/m*3 4.8 C 0 km/h
555 05-12-2011 14:28:02 5.5 C 3.44 g/m*3 5.5 C 0 km/h
556 05-12-2011 14:40:02 5.2 C 3.58 g/m*3 5.2 C 0 km/h
557 05-12-2011 14:52:02 5.2 C 3.51 g/m*3 5.2 C 0 km/h
558 05-12-2011 15:04:01 5.5 C 3.44 g/m*3 5.5 C 0 km/h
559 05-12-2011 15:16:02 5.5 C 3.51 g/m*3 5.5 C 0 km/h
560 05-12-2011 15:28:02 5.6 C 3.46 g/m*3 5.6 C 0 km/h
561 05-12-2011 15:40:02 5.4 C 3.49 g/m*3 5.4 C 0 km/h
562 05-12-2011 15:52:02 5 C 3.47 g/m*3 5 C 0 km/h
563 05-12-2011 16:04:03 5.3 C 3.47 g/m*3 5.3 C 0 km/h
564 05-12-2011 16:16:02 5.2 C 3.51 g/m*3 5.2 C 0 km/h
565 05-12-2011 16:28:02 5.1 C 3.63 g/m*3 5.1 C 0 km/h
566 05-12-2011 16:40:02 5 C 3.74 g/m*3 5 C 0 km/h
567 05-12-2011 16:52:01 4.7 C 3.93 g/m*3 4.7 C 0 km/h
568 05-12-2011 17:04:02 4.5 C 4.08 g/m*3 4.5 C 0 km/h
569 05-12-2011 17:16:01 4 C 4.07 g/m*3 4 C 0 km/h
570 05-12-2011 17:28:01 4.6 C 3.97 g/m*3 4.6 C 0 km/h
571 05-12-2011 17:40:02 4.5 C 3.94 g/m*3 4.5 C 0 km/h
572 05-12-2011 17:52:01 5.2 C 3.99 g/m*3 5.2 C 0 km/h
573 05-12-2011 18:04:02 5.4 C 3.98 g/m*3 5.4 C 0 km/h
574 05-12-2011 18:16:02 5.3 C 4.02 g/m*3 5.3 C 0 km/h
575 05-12-2011 18:28:02 5.3 C 4.09 g/m*3 5.3 C 0 km/h
Sensor: Nr:Datum:Temp:Abs-Feuchte:Windchill:Wind:
Aussen-T/F 576 05-12-2011 18:40:02 5.3 C 4.16 g/m*3 5.3 C 0 km/h
577 05-12-2011 18:52:01 5.4 C 4.26 g/m*3 5.4 C 0 km/h
578 05-12-2011 19:04:02 5.4 C 4.26 g/m*3 5.4 C 0 km/h
579 05-12-2011 19:16:02 5.2 C 4.34 g/m*3 5.2 C 0 km/h
580 05-12-2011 19:28:02 4.9 C 4.46 g/m*3 4.9 C 0 km/h
581 05-12-2011 19:40:01 4.5 C 4.54 g/m*3 4.5 C 0 km/h
582 05-12-2011 19:52:02 3.9 C 4.74 g/m*3 3.9 C 0 km/h
583 05-12-2011 20:04:01 3.7 C 4.92 g/m*3 3.7 C 0 km/h
584 05-12-2011 20:16:02 3.8 C 4.96 g/m*3 3.8 C 0 km/h
585 05-12-2011 20:28:02 3.6 C 4.83 g/m*3 3.6 C 0 km/h
586 05-12-2011 20:40:01 3.4 C 4.83 g/m*3 3.4 C 0 km/h
587 05-12-2011 20:52:02 4 C 4.77 g/m*3 4 C 0 km/h
588 05-12-2011 21:04:02 4.2 C 4.7 g/m*3 4.2 C 0 km/h
589 05-12-2011 21:16:02 4.1 C 4.35 g/m*3 4.1 C 0 km/h
590 05-12-2011 21:28:02 3.8 C 4.33 g/m*3 3.8 C 0 km/h
591 05-12-2011 21:40:02 3.6 C 4.39 g/m*3 3.6 C 0 km/h
592 05-12-2011 21:52:02 3.5 C 4.49 g/m*3 3.5 C 0 km/h
593 05-12-2011 22:04:02 3.5 C 4.49 g/m*3 3.5 C 0 km/h
594 05-12-2011 22:16:01 2.9 C 4.55 g/m*3 2.9 C 0 km/h
595 05-12-2011 22:28:01 3.2 C 4.76 g/m*3 3.2 C 0 km/h
596 05-12-2011 22:40:02 3.8 C 4.89 g/m*3 3.8 C 0 km/h
597 05-12-2011 22:52:02 3.5 C 4.73 g/m*3 3.5 C 0 km/h
598 05-12-2011 23:04:02 3.5 C 4.67 g/m*3 3.5 C 0 km/h
599 05-12-2011 23:16:01 3.4 C 4.7 g/m*3 3.4 C 0 km/h
600 05-12-2011 23:28:01 3.3 C 4.73 g/m*3 3.3 C 0 km/h
Sensor: Nr:Datum:Temp:Abs-Feuchte:Windchill:Wind:
Aussen-T/F 601 05-12-2011 23:40:02 3.7 C 4.74 g/m*3 3.7 C 0 km/h
602 05-12-2011 23:52:02 3.5 C 4.61 g/m*3 3.5 C 0 km/h
603 06-12-2011 00:04:02 4 C 4.58 g/m*3 4 C 0 km/h
604 06-12-2011 00:16:02 3.9 C 4.67 g/m*3 3.9 C 0 km/h
605 06-12-2011 00:28:02 3.8 C 4.71 g/m*3 3.8 C 0 km/h
606 06-12-2011 00:40:02 4.1 C 4.67 g/m*3 4.1 C 0 km/h
607 06-12-2011 00:52:02 3.7 C 4.67 g/m*3 3.7 C 0 km/h
608 06-12-2011 01:04:02 3.4 C 4.7 g/m*3 3.4 C 0 km/h
609 06-12-2011 01:16:02 3.5 C 4.8 g/m*3 3.5 C 0 km/h
610 06-12-2011 01:28:02 3.1 C 4.73 g/m*3 3.1 C 0 km/h
611 06-12-2011 01:40:02 3 C 4.76 g/m*3 3 C 0 km/h
612 06-12-2011 01:52:02 3.1 C 4.73 g/m*3 3.1 C 0 km/h
613 06-12-2011 02:04:01 3.2 C 4.76 g/m*3 3.2 C 0 km/h
614 06-12-2011 02:16:02 3.5 C 4.86 g/m*3 3.5 C 0 km/h
615 06-12-2011 02:28:02 3.5 C 4.8 g/m*3 3.5 C 0 km/h
616 06-12-2011 02:40:02 4 C 4.64 g/m*3 4 C 0 km/h
617 06-12-2011 02:53:03 4 C 4.64 g/m*3 4 C 0 km/h
618 06-12-2011 03:05:03 3.7 C 4.67 g/m*3 3.7 C 0 km/h
619 06-12-2011 03:17:02 3.5 C 4.67 g/m*3 3.5 C 0 km/h
620 06-12-2011 03:29:02 3.8 C 4.77 g/m*3 3.8 C 0 km/h
621 06-12-2011 03:41:02 3.7 C 4.67 g/m*3 3.7 C 0 km/h
622 06-12-2011 03:53:02 4 C 4.58 g/m*3 4 C 0 km/h
623 06-12-2011 04:05:01 3.8 C 4.58 g/m*3 3.8 C 0 km/h
624 06-12-2011 04:17:02 3.8 C 4.58 g/m*3 3.8 C 0 km/h
625 06-12-2011 04:29:02 3.8 C 4.64 g/m*3 3.8 C 0 km/h
Sensor: Nr:Datum:Temp:Abs-Feuchte:Windchill:Wind:
Aussen-T/F 626 06-12-2011 04:41:02 3.8 C 4.58 g/m*3 3.8 C 0 km/h
627 06-12-2011 04:53:02 3.8 C 4.58 g/m*3 3.8 C 0 km/h
628 06-12-2011 05:05:03 3.7 C 4.55 g/m*3 3.7 C 0 km/h
629 06-12-2011 05:17:02 3.7 C 4.49 g/m*3 3.7 C 0 km/h
630 06-12-2011 05:29:02 3.7 C 4.49 g/m*3 3.7 C 0 km/h
631 06-12-2011 05:41:02 3.8 C 4.52 g/m*3 3.8 C 0 km/h
632 06-12-2011 05:53:02 3.3 C 4.37 g/m*3 3.3 C 0 km/h
633 06-12-2011 06:05:02 3.2 C 4.4 g/m*3 3.2 C 0 km/h
634 06-12-2011 06:17:01 3.8 C 4.39 g/m*3 3.8 C 0 km/h
635 06-12-2011 06:29:01 3.8 C 4.39 g/m*3 3.8 C 0 km/h
636 06-12-2011 06:41:02 3.4 C 4.28 g/m*3 3.4 C 0 km/h
637 06-12-2011 06:53:01 3.4 C 4.34 g/m*3 3.4 C 0 km/h
638 06-12-2011 07:05:02 4 C 4.39 g/m*3 4 C 0 km/h
639 06-12-2011 07:17:02 3.9 C 4.29 g/m*3 3.9 C 0 km/h
640 06-12-2011 07:29:02 3.7 C 4.3 g/m*3 3.7 C 0 km/h
641 06-12-2011 07:41:01 3.6 C 4.33 g/m*3 3.6 C 0 km/h
642 06-12-2011 07:53:01 3.3 C 4.31 g/m*3 3.3 C 0 km/h
643 06-12-2011 08:05:01 3.3 C 4.37 g/m*3 3.3 C 0 km/h
644 06-12-2011 08:17:02 3.3 C 4.43 g/m*3 3.3 C 0 km/h
645 06-12-2011 08:29:02 2.6 C 4.34 g/m*3 2.6 C 0 km/h
646 06-12-2011 08:41:01 2.7 C 4.49 g/m*3 2.7 C 0 km/h
647 06-12-2011 08:53:02 2.4 C 4.51 g/m*3 2.4 C 0 km/h
648 06-12-2011 09:05:02 3.7 C 4.74 g/m*3 3.7 C 0 km/h
649 06-12-2011 09:17:02 4.1 C 4.48 g/m*3 4.1 C 0 km/h
650 06-12-2011 09:29:02 4.3 C 4.41 g/m*3 4.3 C 0 km/h
Sensor: Nr:Datum:Temp:Abs-Feuchte:Windchill:Wind:
Aussen-T/F 651 06-12-2011 09:41:03 4.5 C 4.47 g/m*3 4.5 C 0 km/h
652 06-12-2011 09:53:02 4.6 C 4.43 g/m*3 4.6 C 0 km/h
653 06-12-2011 10:05:01 4.7 C 4.4 g/m*3 4.7 C 0 km/h
654 06-12-2011 10:17:01 4.9 C 4.46 g/m*3 4.9 C 0 km/h
655 06-12-2011 10:29:02 5 C 4.42 g/m*3 5 C 0 km/h
656 06-12-2011 10:41:01 4.7 C 4.4 g/m*3 4.7 C 0 km/h
657 06-12-2011 10:53:02 4.7 C 4.4 g/m*3 4.7 C 0 km/h
658 06-12-2011 11:05:02 5 C 4.42 g/m*3 5 C 0 km/h
659 06-12-2011 11:17:02 5.3 C 4.44 g/m*3 5.3 C 0 km/h
660 06-12-2011 11:29:02 5.3 C 4.44 g/m*3 5.3 C 0 km/h
661 06-12-2011 11:41:03 5.3 C 4.44 g/m*3 5.3 C 0 km/h
662 06-12-2011 11:53:02 5.6 C 4.45 g/m*3 5.6 C 0 km/h
663 06-12-2011 12:05:02 5.4 C 4.4 g/m*3 5.4 C 0 km/h
664 06-12-2011 12:17:01 5.5 C 4.42 g/m*3 5.5 C 0 km/h
665 06-12-2011 12:29:01 5.2 C 4.48 g/m*3 5.2 C 0 km/h
666 06-12-2011 12:41:02 5.4 C 4.47 g/m*3 5.4 C 0 km/h
667 06-12-2011 12:53:02 5.4 C 4.4 g/m*3 5.4 C 0 km/h
668 06-12-2011 13:05:02 6.2 C 4.27 g/m*3 6.2 C 0 km/h
669 06-12-2011 13:17:01 6.5 C 4.27 g/m*3 6.5 C 0 km/h
670 06-12-2011 13:29:01 6.3 C 4.22 g/m*3 6.3 C 0 km/h
671 06-12-2011 13:41:02 6.5 C 4.2 g/m*3 6.5 C 0 km/h
672 06-12-2011 13:53:01 6.6 C 4.23 g/m*3 6.6 C 0 km/h
673 06-12-2011 14:05:02 6.6 C 4.23 g/m*3 6.6 C 0 km/h
674 06-12-2011 14:17:02 6.5 C 4.2 g/m*3 6.5 C 0 km/h
675 06-12-2011 14:29:02 6.2 C 4.12 g/m*3 6.2 C 0 km/h
Sensor: Nr:Datum:Temp:Abs-Feuchte:Windchill:Wind:
Aussen-T/F 676 06-12-2011 14:41:01 6.2 C 4.27 g/m*3 6.2 C 0 km/h
677 06-12-2011 14:53:02 6.2 C 4.12 g/m*3 6.2 C 0 km/h
678 06-12-2011 15:05:01 6.2 C 4.27 g/m*3 6.2 C 0 km/h
679 06-12-2011 15:17:02 5.9 C 4.33 g/m*3 5.9 C 0 km/h
680 06-12-2011 15:29:03 5.9 C 4.33 g/m*3 5.9 C 0 km/h
681 06-12-2011 15:41:01 6.2 C 4.27 g/m*3 6.2 C 0 km/h
682 06-12-2011 15:53:02 6.1 C 4.24 g/m*3 6.1 C 0 km/h
683 06-12-2011 16:05:02 5.7 C 4.2 g/m*3 5.7 C 0 km/h
684 06-12-2011 16:17:02 5.2 C 4.06 g/m*3 5.2 C 0 km/h
685 06-12-2011 16:29:02 4.9 C 4.12 g/m*3 4.9 C 0 km/h
686 06-12-2011 16:41:02 4.6 C 4.23 g/m*3 4.6 C 0 km/h
687 06-12-2011 16:53:02 4.9 C 4.25 g/m*3 4.9 C 0 km/h
688 06-12-2011 17:05:02 4.7 C 4.13 g/m*3 4.7 C 0 km/h
689 06-12-2011 17:17:01 4.5 C 4.14 g/m*3 4.5 C 0 km/h
690 06-12-2011 17:29:01 4.3 C 4.09 g/m*3 4.3 C 0 km/h
691 06-12-2011 17:41:02 4 C 4.2 g/m*3 4 C 0 km/h
692 06-12-2011 17:53:02 4 C 4.13 g/m*3 4 C 0 km/h
693 06-12-2011 18:05:02 3.7 C 4.18 g/m*3 3.7 C 0 km/h
694 06-12-2011 18:17:01 3.6 C 4.21 g/m*3 3.6 C 0 km/h
695 06-12-2011 18:29:01 3.5 C 4.24 g/m*3 3.5 C 0 km/h
696 06-12-2011 18:41:02 3.4 C 4.21 g/m*3 3.4 C 0 km/h
697 06-12-2011 18:53:02 3.6 C 4.33 g/m*3 3.6 C 0 km/h
698 06-12-2011 19:05:02 3.5 C 4.3 g/m*3 3.5 C 0 km/h
699 06-12-2011 19:17:02 4.2 C 4.19 g/m*3 4.2 C 0 km/h
700 06-12-2011 19:29:02 4.7 C 4.2 g/m*3 4.7 C 0 km/h
Sensor: Nr:Datum:Temp:Abs-Feuchte:Windchill:Wind:
Aussen-T/F 701 06-12-2011 19:41:02 4.3 C 4.09 g/m*3 4.3 C 0 km/h
702 06-12-2011 19:53:02 4.8 C 4.16 g/m*3 4.8 C 0 km/h
703 06-12-2011 20:05:02 4.8 C 4.16 g/m*3 4.8 C 0 km/h
704 06-12-2011 20:17:02 4.8 C 4.09 g/m*3 4.8 C 0 km/h
705 06-12-2011 20:29:03 4.8 C 4.02 g/m*3 4.8 C 0 km/h
706 06-12-2011 20:41:01 5.1 C 3.97 g/m*3 5.1 C 0 km/h
707 06-12-2011 20:53:02 4.9 C 4.05 g/m*3 4.9 C 0 km/h
708 06-12-2011 21:05:01 4.8 C 4.09 g/m*3 4.8 C 0 km/h
709 06-12-2011 21:17:01 5 C 4.01 g/m*3 5 C 0 km/h
710 06-12-2011 21:29:01 5.2 C 4.06 g/m*3 5.2 C 0 km/h
711 06-12-2011 21:41:02 4.7 C 4.06 g/m*3 4.7 C 0 km/h
712 06-12-2011 21:53:02 4.5 C 4.21 g/m*3 4.5 C 0 km/h
713 06-12-2011 22:05:02 4.3 C 4.28 g/m*3 4.3 C 0 km/h
714 06-12-2011 22:17:02 4.3 C 4.35 g/m*3 4.3 C 0 km/h
715 06-12-2011 22:29:02 4.5 C 4.4 g/m*3 4.5 C 0 km/h
716 06-12-2011 22:41:02 4.8 C 4.43 g/m*3 4.8 C 0 km/h
717 06-12-2011 22:53:01 4.7 C 4.46 g/m*3 4.7 C 0 km/h
718 06-12-2011 23:05:02 4.7 C 4.46 g/m*3 4.7 C 0 km/h
719 06-12-2011 23:17:01 4.5 C 4.54 g/m*3 4.5 C 0 km/h
720 06-12-2011 23:29:01 4.8 C 4.63 g/m*3 4.8 C 0 km/h
721 06-12-2011 23:41:01 4.6 C 4.57 g/m*3 4.6 C 0 km/h
722 06-12-2011 23:53:01 4.7 C 4.6 g/m*3 4.7 C 0 km/h

Legende:
   Min
   Max


Maximal/Minimal-Werte vom 01.12.2011 - 06.12.2011

Sensor Min Max Avg
Temp
(Aussen-T/F)
-2.1 °C
01-12-2011  02:23:01
12.5 °C
02-12-2011  06:25:01
6.01 °C
Abs-Feuchte
(Aussen-T/F)
3.42 g/m*3
05-12-2011  13:52:03
8.31 g/m*3
01-12-2011  13:12:02
5.63 g/m*3
Windchill
(Aussen-T/F)
-2.1 C
01-12-2011  02:23:01
12.5 C
02-12-2011  06:25:01
5.99 C

Die Daten stammen von einer Davis Vantage Pro 2 Wetter-Station und werden unter Linux mit der Software wview2wettercgi und aufbereitet. Alle Angaben erfolgen ohne Gewähr für ihre Vollständigkeit oder Richtigkeit.
Kontakt: Rainer Krienke krienke@uni-koblenz.de . Meine Webseiten an der Uni Koblenz oder privat.
Version: $Revision: 0.78 $